Arogyavaram, India

3:40 PM IST on August 21, 2014 (GMT +0530)
BENGALURU | Change Station
CLOSE
Current Station
Airport
Location: BENGALURU,
Elevation: 3002 ft
Nearby Weather Stations

Elev 3002 ft 13.20 °N, 77.71 °E | Updated 10 minutes ago

Scattered Clouds
Scattered Clouds
93 °F
Feels Like 99 °F
N
8
Wind Variable Wind from ESE

Today
High -- | Low -- °F
--% Chance of Precip.
Yesterday
High -- | Low -- °F
Precip. -- in
6:03 AM 6:34 PM
Waning Crescent, 15% visible
Pressure 29.77 in
Visibility 6.2 miles
Clouds Scattered Clouds 1500 ft
Scattered Clouds 2000 ft
Heat Index 99 °F
Dew Point 70 °F
Humidity 46%
Rainfall 0.00 in
Snow Depth Not available.
UV 7 out of 12
Pollen Not available.
Air Quality Not available.
Flu Activity Not available.
METAR VOBL 211000Z 12007KT 070V180 9999 SCT015 SCT020 34/21 Q1008 NOSIG

More Conditions Fewer Conditions

Pressure 29.77 in
Visibility 6.2 miles
Clouds Scattered Clouds 1500 ft
Scattered Clouds 2000 ft
Heat Index 99 °F
Dew Point 70 °F
Humidity 46%
Rainfall 0.00 in
Snow Depth Not available.
UV 7 out of 12
Pollen Not available.
Air Quality Not available.
Flu Activity Not available.
METAR VOBL 211000Z 12007KT 070V180 9999 SCT015 SCT020 34/21 Q1008 NOSIG

More Conditions Fewer Conditions

10-Day Weather Forecast

Almanac

Astronomy

Aug. 21, 2014 Rise Set
Actual Time 6:03 AM IST 6:34 PM IST
Civil Twilight 5:41 AM IST 6:56 PM IST
Nautical Twilight 5:16 AM IST 7:21 PM IST
Astronomical Twilight 4:50 AM IST 7:47 PM IST
Moon 2:27 AM IST 3:27 PM IST
Length of Visible Light 13h 14m
Length of Day
12h 30m
Tomorrow will be 0m 40s shorter.
Waning Crescent, 15% of the Moon is Illuminated
Today
Waning Crescent
Aug 25
New
Sep 2
First Quarter
Sep 8
Full
Sep 15
Last Quarter

Yesterday's Extremes

Country Highs Country Lows

Community

WunderPhotos

Upload Photos

1,745,871 photos uploaded!

Nearby

Snow Depth

Not available.

Earthquake Activity

City Distance Mag. Time & Date
No recent earthquake activity has been reported nearby.
Minimum magnitude displayed is 2.5.

Coastal Water Temperatures

Place Temperature
No Stations Reporting

Nearby Weather Stations